createdAt,value
2018-02-12T00:00:23.657Z,92.09
2018-02-12T00:01:23.667Z,91.71
2018-02-12T00:02:24.144Z,91.52
2018-02-12T00:03:23.943Z,92
2018-02-12T00:04:23.956Z,91.43
2018-02-12T00:05:23.932Z,91.33
2018-02-12T00:06:23.730Z,91.52
2018-02-12T00:07:24.197Z,91.52
2018-02-12T00:08:23.756Z,91.62
2018-02-12T00:09:23.985Z,91.43
2018-02-12T00:10:24.188Z,91.24
2018-02-12T00:11:38.922Z,91.71
2018-02-12T00:12:23.808Z,91.52
2018-02-12T00:13:24.072Z,91.14
2018-02-12T00:14:24.083Z,91.62
2018-02-12T00:15:24.097Z,91.71
2018-02-12T00:16:23.858Z,91.71
2018-02-12T00:17:23.873Z,91.24
2018-02-12T00:18:23.900Z,91.9
2018-02-12T00:19:23.896Z,91.24
2018-02-12T00:20:23.911Z,91.62
2018-02-12T00:21:24.170Z,91.24
2018-02-12T00:22:24.181Z,91.71
2018-02-12T00:23:23.943Z,91.43
2018-02-12T00:24:24.228Z,91.52
2018-02-12T00:25:23.969Z,91.81
2018-02-12T00:26:24.233Z,92.09
2018-02-12T00:27:24.244Z,91.57
2018-02-12T00:28:24.005Z,91.71
2018-02-12T00:29:24.015Z,91.9
2018-02-12T00:30:24.029Z,91.81
2018-02-12T00:31:24.044Z,92
2018-02-12T00:32:24.054Z,91.71
2018-02-12T00:33:24.065Z,91.33
2018-02-12T00:34:24.336Z,91.71
2018-02-12T00:35:24.343Z,91.71
2018-02-12T00:36:24.100Z,91.81
2018-02-12T00:37:24.365Z,91.52
2018-02-12T00:38:24.125Z,91.52
2018-02-12T00:39:24.390Z,91.43
2018-02-12T00:40:24.404Z,91.71
2018-02-12T00:41:24.416Z,91.62
2018-02-12T00:42:24.175Z,91.33
2018-02-12T00:43:24.438Z,91.71
2018-02-12T00:44:24.452Z,91.24
2018-02-12T00:45:24.462Z,91.43
2018-02-12T00:46:24.474Z,91.33
2018-02-12T00:47:24.238Z,91.43
2018-02-12T00:48:24.249Z,91.33
2018-02-12T00:49:24.260Z,91.24
2018-02-12T00:50:24.524Z,91.33
2018-02-12T00:51:24.285Z,91.43
2018-02-12T00:52:24.558Z,91.14
2018-02-12T00:53:24.564Z,90.95
2018-02-12T00:54:24.571Z,90.95
2018-02-12T00:55:24.335Z,90.95
2018-02-12T00:56:24.598Z,91.33
2018-02-12T00:57:24.358Z,91.52
2018-02-12T00:58:24.620Z,91.33
2018-02-12T00:59:24.639Z,91.33
2018-02-12T01:00:24.401Z,90.95
2018-02-12T01:01:24.660Z,90.95
2018-02-12T01:02:24.678Z,91.14
2018-02-12T01:03:24.434Z,91.14
2018-02-12T01:04:24.699Z,91.43
2018-02-12T01:05:24.458Z,91.24
2018-02-12T01:06:24.471Z,91.52
2018-02-12T01:07:24.483Z,90.95
2018-02-12T01:08:24.516Z,90.95
2018-02-12T01:09:24.763Z,91.24
2018-02-12T01:10:24.521Z,91.14
2018-02-12T01:11:24.791Z,91.24
2018-02-12T01:12:24.803Z,91.24
2018-02-12T01:13:24.813Z,91.14
2018-02-12T01:14:24.823Z,91.33
2018-02-12T01:15:24.833Z,91.05
2018-02-12T01:16:24.845Z,90.95
2018-02-12T01:17:24.863Z,91.33
2018-02-12T01:18:24.622Z,91.24
2018-02-12T01:19:24.885Z,91.43
2018-02-12T01:20:24.644Z,91.05
2018-02-12T01:21:24.664Z,91.43
2018-02-12T01:22:24.922Z,91.43
2018-02-12T01:23:24.683Z,90.77
2018-02-12T01:24:24.966Z,91.14
2018-02-12T01:25:24.962Z,91.33
2018-02-12T01:26:24.721Z,90.58
2018-02-12T01:27:24.770Z,90.86
2018-02-12T01:28:25.005Z,91.14
2018-02-12T01:29:25.010Z,90.67
2018-02-12T01:30:24.773Z,90.39
2018-02-12T01:31:25.035Z,90.58
2018-02-12T01:32:25.049Z,90.29
2018-02-12T01:33:25.060Z,90.58
2018-02-12T01:34:25.075Z,90.77
2018-02-12T01:35:24.836Z,90.58
2018-02-12T01:36:24.851Z,90.39
2018-02-12T01:37:24.870Z,90.29
2018-02-12T01:38:25.126Z,90.58
2018-02-12T01:39:24.885Z,90.39
2018-02-12T01:40:24.902Z,90.48
2018-02-12T01:41:24.910Z,91.05
2018-02-12T01:42:24.953Z,90.58
2018-02-12T01:43:25.211Z,90.77
2018-02-12T01:44:25.201Z,90.58
2018-02-12T01:45:25.007Z,90.77
2018-02-12T01:46:24.978Z,91.14
2018-02-12T01:47:25.241Z,90.95
2018-02-12T01:48:24.999Z,90.67
2018-02-12T01:49:25.263Z,90.67
2018-02-12T01:50:25.275Z,91.33
2018-02-12T01:51:25.037Z,90.95
2018-02-12T01:52:25.300Z,90.67
2018-02-12T01:53:25.315Z,90.67
2018-02-12T01:54:25.324Z,90.58
2018-02-12T01:55:25.084Z,90.48
2018-02-12T01:56:25.348Z,90.86
2018-02-12T01:57:25.112Z,90.39
2018-02-12T01:58:25.373Z,90.67
2018-02-12T01:59:25.384Z,90.39
2018-02-12T02:00:25.155Z,90.77
2018-02-12T02:01:25.165Z,90.58
2018-02-12T02:02:25.429Z,90.58
2018-02-12T02:03:25.192Z,90.39
2018-02-12T02:04:25.213Z,90.39
2018-02-12T02:05:25.465Z,90.58
2018-02-12T02:06:25.477Z,90.58
2018-02-12T02:07:25.507Z,90.2
2018-02-12T02:08:25.509Z,90.39
2018-02-12T02:09:25.548Z,90.77
2018-02-12T02:10:25.527Z,90.58
2018-02-12T02:11:25.546Z,90.48
2018-02-12T02:12:25.300Z,90.58
2018-02-12T02:13:25.570Z,90.29
2018-02-12T02:14:25.330Z,90.58
2018-02-12T02:15:25.340Z,90.67
2018-02-12T02:16:25.350Z,90.39
2018-02-12T02:17:25.368Z,90.29
2018-02-12T02:18:25.630Z,90.29
2018-02-12T02:19:25.645Z,90.58
2018-02-12T02:20:25.663Z,90.39
2018-02-12T02:21:25.415Z,90.29
2018-02-12T02:22:25.429Z,90.39
2018-02-12T02:23:25.691Z,90.67
2018-02-12T02:24:25.710Z,90.58
2018-02-12T02:25:25.719Z,90.48
2018-02-12T02:26:25.478Z,90.77
2018-02-12T02:27:25.740Z,90.39
2018-02-12T02:28:25.809Z,91.14
2018-02-12T02:29:25.768Z,90.39
2018-02-12T02:30:25.531Z,90.39
2018-02-12T02:31:25.797Z,90.67
2018-02-12T02:32:25.810Z,90.58
2018-02-12T02:33:25.823Z,90.48
2018-02-12T02:34:25.581Z,90.95
2018-02-12T02:35:25.867Z,90.58
2018-02-12T02:36:25.856Z,90.48
2018-02-12T02:37:25.874Z,90.39
2018-02-12T02:38:25.893Z,90.58
2018-02-12T02:39:25.642Z,90.1
2018-02-12T02:40:25.909Z,90.48
2018-02-12T02:41:25.687Z,90.1
2018-02-12T02:42:25.932Z,91.33
2018-02-12T02:43:25.695Z,90.58
2018-02-12T02:44:25.712Z,90.58
2018-02-12T02:45:25.969Z,90.39
2018-02-12T02:46:25.731Z,90.58
2018-02-12T02:47:26.013Z,90.48
2018-02-12T02:48:25.758Z,90.48
2018-02-12T02:49:26.022Z,90.77
2018-02-12T02:50:26.058Z,90.39
2018-02-12T02:51:26.052Z,90.2
2018-02-12T02:52:26.059Z,90.67
2018-02-12T02:53:25.822Z,90.1
2018-02-12T02:54:26.084Z,90.1
2018-02-12T02:55:26.097Z,90.48
2018-02-12T02:56:26.114Z,89.82
2018-02-12T02:57:26.126Z,90.1
2018-02-12T02:58:25.886Z,90.39
2018-02-12T02:59:26.151Z,90.01
2018-02-12T03:00:26.163Z,89.53
2018-02-12T03:01:25.921Z,89.15
2018-02-12T03:02:26.185Z,89.82
2018-02-12T03:03:26.206Z,89.82
2018-02-12T03:04:25.963Z,89.91
2018-02-12T03:05:26.226Z,89.34
2018-02-12T03:06:25.987Z,89.53
2018-02-12T03:07:26.253Z,89.25
2018-02-12T03:08:26.015Z,88.96
2018-02-12T03:09:26.030Z,89.25
2018-02-12T03:10:26.036Z,89.53
2018-02-12T03:11:26.316Z,89.34
2018-02-12T03:12:26.314Z,89.34
2018-02-12T03:13:26.324Z,89.82
2018-02-12T03:14:26.089Z,89.91
2018-02-12T03:15:26.352Z,89.25
2018-02-12T03:16:26.121Z,88.78
2018-02-12T03:17:26.125Z,89.06
2018-02-12T03:18:26.391Z,88.59
2018-02-12T03:19:26.408Z,89.25
2018-02-12T03:20:26.416Z,89.06
2018-02-12T03:21:26.176Z,88.59
2018-02-12T03:22:26.192Z,88.87
2018-02-12T03:23:26.456Z,88.68
2018-02-12T03:24:26.467Z,88.59
2018-02-12T03:25:26.492Z,88.4
2018-02-12T03:26:26.491Z,88.11
2018-02-12T03:27:26.509Z,88.4
2018-02-12T03:28:26.266Z,88.3
2018-02-12T03:29:26.531Z,88.49
2018-02-12T03:30:26.317Z,88.3
2018-02-12T03:31:26.562Z,88.96
2018-02-12T03:32:26.322Z,88.11
2018-02-12T03:33:26.333Z,88.02
2018-02-12T03:34:26.596Z,89.2
2018-02-12T03:35:26.608Z,88.82
2018-02-12T03:36:26.620Z,89.01
2018-02-12T03:37:26.385Z,88.73
2018-02-12T03:38:26.399Z,88.25
2018-02-12T03:39:26.410Z,87.97
2018-02-12T03:40:26.425Z,87.87
2018-02-12T03:41:26.687Z,88.25
2018-02-12T03:42:26.450Z,88.16
2018-02-12T03:43:26.464Z,88.54
2018-02-12T03:44:26.724Z,88.16
2018-02-12T03:45:26.502Z,88.06
2018-02-12T03:46:26.753Z,87.97
2018-02-12T03:47:26.766Z,88.16
2018-02-12T03:48:26.528Z,87.77
2018-02-12T03:49:26.540Z,88.25
2018-02-12T03:50:26.810Z,87.97
2018-02-12T03:51:26.566Z,87.97
2018-02-12T03:52:26.583Z,87.73
2018-02-12T03:53:26.594Z,87.87
2018-02-12T03:54:26.605Z,88.21
2018-02-12T03:55:26.620Z,87.92
2018-02-12T03:56:26.886Z,88.21
2018-02-12T03:57:26.897Z,88.11
2018-02-12T03:58:26.912Z,87.83
2018-02-12T03:59:26.674Z,88.3
2018-02-12T04:00:26.937Z,87.92
2018-02-12T04:01:26.954Z,88.3
2018-02-12T04:02:26.712Z,87.87
2018-02-12T04:03:26.727Z,88.11
2018-02-12T04:04:26.739Z,88.3
2018-02-12T04:05:26.750Z,88.11
2018-02-12T04:06:26.768Z,88.21
2018-02-12T04:07:26.789Z,88.3
2018-02-12T04:08:27.043Z,88.21
2018-02-12T04:09:26.803Z,87.83
2018-02-12T04:10:26.818Z,88.11
2018-02-12T04:11:27.081Z,88.3
2018-02-12T04:12:27.096Z,88.4
2018-02-12T04:13:26.869Z,88.02
2018-02-12T04:14:26.875Z,88.3
2018-02-12T04:15:27.131Z,88.11
2018-02-12T04:16:26.895Z,88.59
2018-02-12T04:17:26.909Z,88.21
2018-02-12T04:18:27.174Z,88.02
2018-02-12T04:19:26.933Z,88.4
2018-02-12T04:20:27.203Z,88.11
2018-02-12T04:21:26.984Z,88.59
2018-02-12T04:22:27.225Z,88.96
2018-02-12T04:23:27.246Z,88.4
2018-02-12T04:24:26.998Z,89.15
2018-02-12T04:25:27.013Z,88.3
2018-02-12T04:26:27.278Z,88.4
2018-02-12T04:27:27.290Z,88.3
2018-02-12T04:28:27.053Z,88.96
2018-02-12T04:29:27.325Z,88.87
2018-02-12T04:30:27.329Z,88.96
2018-02-12T04:31:27.385Z,88.3
2018-02-12T04:32:27.358Z,88.4
2018-02-12T04:33:27.114Z,89.25
2018-02-12T04:34:27.128Z,88.96
2018-02-12T04:35:27.160Z,89.06
2018-02-12T04:36:27.153Z,88.68
2018-02-12T04:37:27.166Z,88.11
2018-02-12T04:38:27.179Z,87.83
2018-02-12T04:39:27.445Z,88.11
2018-02-12T04:40:27.207Z,89.25
2018-02-12T04:41:27.473Z,88.25
2018-02-12T04:42:27.235Z,88.02
2018-02-12T04:43:27.496Z,88.21
2018-02-12T04:44:27.514Z,87.87
2018-02-12T04:45:27.273Z,87.16
2018-02-12T04:46:27.284Z,87.68
2018-02-12T04:47:27.549Z,87.4
2018-02-12T04:48:27.565Z,88.16
2018-02-12T04:49:27.323Z,87.21
2018-02-12T04:50:27.789Z,87.49
2018-02-12T04:51:27.641Z,87.97
2018-02-12T04:52:27.361Z,87.77
2018-02-12T04:53:27.379Z,87.59
2018-02-12T04:54:27.392Z,87.21
2018-02-12T04:55:27.419Z,88.16
2018-02-12T04:56:27.672Z,88.06
2018-02-12T04:57:27.430Z,87.87
2018-02-12T04:58:27.697Z,87.4
2018-02-12T04:59:27.456Z,87.12
2018-02-12T05:00:27.721Z,86.64
2018-02-12T05:01:27.731Z,86.83
2018-02-12T05:02:27.745Z,86.55
2018-02-12T05:03:27.764Z,86.74
2018-02-12T05:04:27.532Z,87.02
2018-02-12T05:05:27.787Z,87.12
2018-02-12T05:06:27.802Z,87.21
2018-02-12T05:07:27.563Z,87.4
2018-02-12T05:08:27.577Z,87.3
2018-02-12T05:09:27.589Z,87.21
2018-02-12T05:10:27.854Z,86.69
2018-02-12T05:11:27.616Z,86.6
2018-02-12T05:12:27.944Z,87.02
2018-02-12T05:13:27.905Z,86.98
2018-02-12T05:14:27.655Z,86.88
2018-02-12T05:15:27.920Z,86.88
2018-02-12T05:16:27.683Z,87.16
2018-02-12T05:17:27.946Z,87.83
2018-02-12T05:18:27.965Z,87.26
2018-02-12T05:19:27.723Z,87.26
2018-02-12T05:20:27.991Z,87.45
2018-02-12T05:21:27.746Z,86.98
2018-02-12T05:22:28.012Z,87.77
2018-02-12T05:23:28.024Z,88.06
2018-02-12T05:24:28.037Z,87.3
2018-02-12T05:25:28.051Z,87.3
2018-02-12T05:26:28.065Z,86.93
2018-02-12T05:28:28.090Z,87.4
2018-02-12T05:29:28.104Z,87.68
2018-02-12T05:30:27.865Z,86.93
2018-02-12T05:31:27.879Z,86.26
2018-02-12T05:32:28.155Z,87.21
2018-02-12T05:33:27.910Z,87.49
2018-02-12T05:34:27.920Z,87.16
2018-02-12T05:35:27.932Z,87.16
2018-02-12T05:36:28.200Z,87.07
2018-02-12T05:37:28.215Z,86.88
2018-02-12T05:38:27.971Z,87.77
2018-02-12T05:39:27.983Z,87.97
2018-02-12T05:40:28.251Z,87.21
2018-02-12T05:41:28.263Z,86.83
2018-02-12T05:42:28.034Z,87.16
2018-02-12T05:43:28.319Z,86.98
2018-02-12T05:44:28.301Z,87.35
2018-02-12T05:45:28.315Z,86.98
2018-02-12T05:46:28.077Z,87.26
2018-02-12T05:47:28.343Z,87.83
2018-02-12T05:48:28.353Z,88.4
2018-02-12T05:49:28.390Z,88.59
2018-02-12T05:50:28.381Z,88.4
2018-02-12T05:51:28.144Z,88.4
2018-02-12T05:52:28.406Z,88.3
2018-02-12T05:53:28.420Z,89.15
2018-02-12T05:54:28.198Z,88.4
2018-02-12T05:55:28.192Z,89.06
2018-02-12T05:56:28.460Z,88.11
2018-02-12T05:57:28.219Z,88.59
2018-02-12T05:58:28.482Z,88.49
2018-02-12T05:59:28.498Z,88.49
2018-02-12T06:00:28.510Z,88.87
2018-02-12T06:01:28.531Z,88.87
2018-02-12T06:02:28.540Z,88.3
2018-02-12T06:03:28.297Z,88.3
2018-02-12T06:04:28.560Z,88.3
2018-02-12T06:05:28.574Z,88.96
2018-02-12T06:06:28.586Z,88.78
2018-02-12T06:07:28.598Z,88.96
2018-02-12T06:08:28.612Z,89.15
2018-02-12T06:09:28.628Z,88.3
2018-02-12T06:10:28.640Z,89.25
2018-02-12T06:11:28.659Z,89.06
2018-02-12T06:12:28.664Z,88.59
2018-02-12T06:13:28.680Z,88.4
2018-02-12T06:14:28.702Z,88.59
2018-02-12T06:15:28.710Z,88.49
2018-02-12T06:16:28.464Z,87.92
2018-02-12T06:17:28.478Z,88.11
2018-02-12T06:18:28.750Z,88.4
2018-02-12T06:19:28.757Z,88.59
2018-02-12T06:20:28.820Z,89.25
2018-02-12T06:21:28.781Z,89.06
2018-02-12T06:22:28.542Z,89.06
2018-02-12T06:23:28.570Z,88.78
2018-02-12T06:24:28.568Z,88.4
2018-02-12T06:25:28.579Z,88.87
2018-02-12T06:26:28.853Z,88.4
2018-02-12T06:27:28.857Z,88.59
2018-02-12T06:28:28.872Z,88.96
2018-02-12T06:29:28.633Z,88.68
2018-02-12T06:30:28.900Z,89.34
2018-02-12T06:31:28.915Z,89.25
2018-02-12T06:32:28.942Z,89.34
2018-02-12T06:33:28.935Z,89.91
2018-02-12T06:34:28.695Z,89.82
2018-02-12T06:35:28.710Z,89.25
2018-02-12T06:36:28.975Z,89.34
2018-02-12T06:37:28.749Z,89.82
2018-02-12T06:38:28.748Z,89.72
2018-02-12T06:39:29.014Z,89.91
2018-02-12T06:40:28.772Z,89.91
2018-02-12T06:41:28.784Z,89.91
2018-02-12T06:42:29.049Z,89.91
2018-02-12T06:43:29.062Z,90.1
2018-02-12T06:44:28.829Z,89.53
2018-02-12T06:45:28.834Z,89.82
2018-02-12T06:46:29.097Z,89.01
2018-02-12T06:47:29.111Z,89.25
2018-02-12T06:48:29.121Z,88.96
2018-02-12T06:49:28.884Z,89.15
2018-02-12T06:50:29.148Z,88.96
2018-02-12T06:51:29.165Z,89.25
2018-02-12T06:52:29.180Z,89.06
2018-02-12T06:53:29.186Z,89.34
2018-02-12T06:54:29.197Z,88.96
2018-02-12T06:55:28.960Z,88.96
2018-02-12T06:56:28.975Z,88.92
2018-02-12T06:57:28.986Z,88.78
2018-02-12T06:58:29.007Z,89.11
2018-02-12T06:59:29.013Z,88.68
2018-02-12T07:00:29.027Z,88.87
2018-02-12T07:01:29.039Z,88.3
2018-02-12T07:02:29.310Z,88.45
2018-02-12T07:03:29.311Z,88.64
2018-02-12T07:04:29.327Z,88.17
2018-02-12T07:05:29.338Z,88.26
2018-02-12T07:06:29.358Z,89.11
2018-02-12T07:07:29.112Z,89.11
2018-02-12T07:08:29.124Z,88.82
2018-02-12T07:09:29.388Z,88.64
2018-02-12T07:10:29.404Z,88.49
2018-02-12T07:11:29.419Z,88.92
2018-02-12T07:12:29.482Z,88.07
2018-02-12T07:13:29.437Z,88.26
2018-02-12T07:14:29.455Z,88.78
2018-02-12T07:15:29.470Z,88.3
2018-02-12T07:16:29.479Z,88.4
2018-02-12T07:17:29.237Z,88.87
2018-02-12T07:18:29.252Z,88.4
2018-02-12T07:19:29.264Z,88.21
2018-02-12T07:20:29.326Z,88.3
2018-02-12T07:21:29.541Z,88.17
2018-02-12T07:22:29.562Z,88.92
2018-02-12T07:23:29.574Z,88.45
2018-02-12T07:24:29.584Z,88.82
2018-02-12T07:25:29.595Z,88.96
2018-02-12T07:26:29.605Z,88.96
2018-02-12T07:27:29.367Z,88.96
2018-02-12T07:28:29.379Z,88.59
2018-02-12T07:29:29.642Z,89.2
2018-02-12T07:30:29.403Z,88.96
2018-02-12T07:31:29.666Z,88.92
2018-02-12T07:32:29.678Z,88.45
2018-02-12T07:33:29.694Z,89.15
2018-02-12T07:34:29.453Z,88.96
2018-02-12T07:35:29.720Z,89.06
2018-02-12T07:36:29.477Z,88.96
2018-02-12T07:37:29.738Z,89.01
2018-02-12T07:38:29.506Z,88.73
2018-02-12T07:39:29.766Z,89.3
2018-02-12T07:40:29.780Z,88.92
2018-02-12T07:41:29.810Z,89.53
2018-02-12T07:42:29.552Z,89.72
2018-02-12T07:43:29.565Z,88.68
2018-02-12T07:44:29.576Z,88.68
2018-02-12T07:45:29.844Z,88.87
2018-02-12T07:46:29.851Z,88.4
2018-02-12T07:47:29.613Z,88.11
2018-02-12T07:48:29.879Z,88.96
2018-02-12T07:49:29.641Z,88.49
2018-02-12T07:50:29.906Z,88.21
2018-02-12T07:51:29.668Z,87.73
2018-02-12T07:52:29.929Z,87.83
2018-02-12T07:53:29.687Z,88.21
2018-02-12T07:54:29.955Z,88.3
2018-02-12T07:55:29.967Z,88.02
2018-02-12T07:56:29.740Z,87.92
2018-02-12T07:57:29.995Z,88.02
2018-02-12T07:58:29.755Z,88.21
2018-02-12T07:59:29.767Z,88.21
2018-02-12T08:00:29.780Z,87.83
2018-02-12T08:01:29.794Z,87.83
2018-02-12T08:02:30.058Z,87.92
2018-02-12T08:03:29.823Z,88.3
2018-02-12T08:04:30.086Z,87.92
2018-02-12T08:05:30.110Z,88.02
2018-02-12T08:06:29.861Z,88.07
2018-02-12T08:07:30.125Z,88.02
2018-02-12T08:08:29.888Z,88.21
2018-02-12T08:09:29.898Z,87.73
2018-02-12T08:10:30.166Z,87.73
2018-02-12T08:11:29.922Z,88.02
2018-02-12T08:12:30.197Z,87.92
2018-02-12T08:13:29.948Z,87.73
2018-02-12T08:14:29.969Z,88.02
2018-02-12T08:15:30.227Z,88.11
2018-02-12T08:16:29.990Z,87.45
2018-02-12T08:17:30.255Z,87.35
2018-02-12T08:18:30.065Z,86.88
2018-02-12T08:19:30.278Z,87.16
2018-02-12T08:20:30.293Z,87.45
2018-02-12T08:21:30.052Z,86.5
2018-02-12T08:22:30.067Z,86.5
2018-02-12T08:23:30.334Z,87.35
2018-02-12T08:24:30.363Z,87.26
2018-02-12T08:25:30.112Z,87.07
2018-02-12T08:26:30.124Z,86.69
2018-02-12T08:27:30.406Z,87.35
2018-02-12T08:28:30.394Z,87.12
2018-02-12T08:29:30.152Z,87.12
2018-02-12T08:30:30.418Z,88.07
2018-02-12T08:31:30.178Z,87.69
2018-02-12T08:32:30.443Z,87.64
2018-02-12T08:33:30.463Z,87.64
2018-02-12T08:34:30.474Z,87.45
2018-02-12T08:35:30.502Z,87.12
2018-02-12T08:36:30.247Z,87.59
2018-02-12T08:37:30.276Z,87.88
2018-02-12T08:38:30.278Z,87.92
2018-02-12T08:39:30.536Z,87.59
2018-02-12T08:40:30.298Z,87.98
2018-02-12T08:41:30.563Z,87.59
2018-02-12T08:42:30.322Z,88.07
2018-02-12T08:43:30.592Z,87.69
2018-02-12T08:44:30.352Z,88.07
2018-02-12T08:45:30.364Z,87.59
2018-02-12T08:46:30.628Z,87.59
2018-02-12T08:47:30.388Z,87.73
2018-02-12T08:48:30.665Z,87.5
2018-02-12T08:49:30.414Z,87.98
2018-02-12T08:50:30.429Z,87.69
2018-02-12T08:51:30.698Z,87.69
2018-02-12T08:52:30.707Z,87.21
2018-02-12T08:53:30.470Z,87.78
2018-02-12T08:54:30.479Z,87.4
2018-02-12T08:55:30.861Z,87.88
2018-02-12T08:56:30.505Z,87.5
2018-02-12T08:57:30.517Z,87.88
2018-02-12T08:58:30.779Z,87.78
2018-02-12T08:59:30.793Z,87.98
2018-02-12T09:00:30.555Z,87.83
2018-02-12T09:01:30.584Z,87.35
2018-02-12T09:02:30.839Z,87.16
2018-02-12T09:03:30.596Z,87.16
2018-02-12T09:04:30.867Z,87.07
2018-02-12T09:05:30.875Z,87.16
2018-02-12T09:06:30.888Z,86.6
2018-02-12T09:07:30.912Z,86.41
2018-02-12T09:08:30.664Z,86.22
2018-02-12T09:09:30.925Z,86.12
2018-02-12T09:10:30.956Z,86.12
2018-02-12T09:11:30.698Z,84.99
2018-02-12T09:12:30.968Z,84.32
2018-02-12T09:13:30.726Z,84.42
2018-02-12T09:14:30.992Z,83.85
2018-02-12T09:15:30.751Z,84.23
2018-02-12T09:16:30.769Z,83.56
2018-02-12T09:17:31.035Z,83
2018-02-12T09:18:31.042Z,82.81
2018-02-12T09:19:30.805Z,82.33
2018-02-12T09:20:30.820Z,82.43
2018-02-12T09:21:31.081Z,83.18
2018-02-12T09:22:30.845Z,83.37
2018-02-12T09:23:31.114Z,83
2018-02-12T09:24:31.147Z,82.43
2018-02-12T09:25:30.887Z,83
2018-02-12T09:26:30.897Z,83.28
2018-02-12T09:27:31.163Z,82.14
2018-02-12T09:28:31.176Z,82.24
2018-02-12T09:29:31.208Z,82.24
2018-02-12T09:30:30.950Z,81.29
2018-02-12T09:31:30.968Z,81.48
2018-02-12T09:32:30.980Z,82.14
2018-02-12T09:33:31.264Z,80.82
2018-02-12T09:34:31.006Z,80.86
2018-02-12T09:35:31.275Z,80.82
2018-02-12T09:36:31.291Z,80.82
2018-02-12T09:37:31.305Z,80.53
2018-02-12T09:38:31.344Z,80.91
2018-02-12T09:39:31.075Z,80.76
2018-02-12T09:40:31.338Z,80.1
2018-02-12T09:41:31.353Z,80
2018-02-12T09:42:31.117Z,78.77
2018-02-12T09:43:31.396Z,78.49
2018-02-12T09:44:31.396Z,77.92
2018-02-12T09:45:31.407Z,77.73
2018-02-12T09:46:31.439Z,77.4
2018-02-12T09:47:31.482Z,78.3
2018-02-12T09:48:31.450Z,78.16
2018-02-12T09:49:31.212Z,78.77
2018-02-12T09:50:31.279Z,78.58
2018-02-12T09:51:31.492Z,76.31
2018-02-12T09:52:31.506Z,74.79
2018-02-12T09:53:31.473Z,75.45
2018-02-12T09:54:31.288Z,76.87
2018-02-12T09:55:31.558Z,76.68
2018-02-12T09:56:31.561Z,77.06
2018-02-12T09:57:31.323Z,76.59
2018-02-12T09:58:31.339Z,76.21
2018-02-12T09:59:31.352Z,76.12
2018-02-12T10:00:31.632Z,76.87
2018-02-12T10:01:31.632Z,77.06
2018-02-12T10:02:31.644Z,76.46
2018-02-12T10:03:31.656Z,76.55
2018-02-12T10:04:31.671Z,77.03
2018-02-12T10:05:31.691Z,77.69
2018-02-12T10:06:31.704Z,77.22
2018-02-12T10:07:31.720Z,77.88
2018-02-12T10:08:31.725Z,77.69
2018-02-12T10:09:31.742Z,78.35
2018-02-12T10:10:31.752Z,78.16
2018-02-12T10:11:31.514Z,77.92
2018-02-12T10:12:31.774Z,76.31
2018-02-12T10:13:31.553Z,74.79
2018-02-12T10:14:31.808Z,75.64
2018-02-12T10:15:31.822Z,75.64
2018-02-12T10:16:31.579Z,76.03
2018-02-12T10:17:31.846Z,75.64
2018-02-12T10:18:31.599Z,74.32
2018-02-12T10:19:31.878Z,73.94
2018-02-12T10:20:31.644Z,73.94
2018-02-12T10:21:31.641Z,74.07
2018-02-12T10:22:31.923Z,72.64
2018-02-12T10:23:31.676Z,72.84
2018-02-12T10:24:31.940Z,71.03
2018-02-12T10:25:31.961Z,70.84
2018-02-12T10:26:31.719Z,71.57
2018-02-12T10:27:31.993Z,70.37
2018-02-12T10:28:32.009Z,70.18
2018-02-12T10:29:32.050Z,68.85
2018-02-12T10:30:32.033Z,68.19
2018-02-12T10:31:32.053Z,67.71
2018-02-12T10:32:32.068Z,69.04
2018-02-12T10:33:32.082Z,70.03
2018-02-12T10:34:31.859Z,65.95
2018-02-12T10:35:31.868Z,64.08
2018-02-12T10:36:32.136Z,63.67
2018-02-12T10:37:31.946Z,63.76
2018-02-12T10:38:32.172Z,63.67
2018-02-12T10:39:32.187Z,65.03
2018-02-12T10:40:32.209Z,65.12
2018-02-12T10:41:32.238Z,63.83
2018-02-12T10:42:31.992Z,59.74
2018-02-12T10:43:32.011Z,59.17
2018-02-12T10:44:32.029Z,61.17
2018-02-12T10:45:32.047Z,61.07
2018-02-12T10:46:32.064Z,60.31
2018-02-12T10:47:32.334Z,61.17
2018-02-12T10:48:32.354Z,60.03
2018-02-12T10:49:32.398Z,61.14
2018-02-12T10:50:32.139Z,62.66
2018-02-12T10:51:32.157Z,62.27
2018-02-12T10:52:32.176Z,61.33
2018-02-12T10:53:32.196Z,62.27
2018-02-12T10:54:32.213Z,60.13
2018-02-12T10:55:32.231Z,60
2018-02-12T10:56:32.268Z,61.33
2018-02-12T10:57:32.519Z,60.19
2018-02-12T10:58:32.531Z,61.2
2018-02-12T10:59:32.561Z,61.3
2018-02-12T11:00:32.317Z,60.92
2018-02-12T11:01:32.342Z,61.68
2018-02-12T11:02:32.603Z,62.34
2018-02-12T11:03:32.630Z,61.68
2018-02-12T11:04:32.386Z,61.96
2018-02-12T11:05:32.650Z,62.34
2018-02-12T11:06:32.688Z,61.71
2018-02-12T11:07:32.436Z,61.99
2018-02-12T11:08:32.453Z,61.71
2018-02-12T11:09:32.718Z,61.33
2018-02-12T11:10:32.484Z,60.28
2018-02-12T11:11:32.751Z,61.01
2018-02-12T11:12:32.775Z,61.68
2018-02-12T11:13:32.784Z,63.01
2018-02-12T11:14:32.803Z,64.05
2018-02-12T11:15:32.569Z,64.59
2018-02-12T11:16:32.835Z,66.01
2018-02-12T11:17:32.848Z,66.2
2018-02-12T11:18:32.874Z,65.66
2018-02-12T11:19:32.884Z,64.81
2018-02-12T11:20:32.644Z,64.81
2018-02-12T11:21:32.660Z,65.06
2018-02-12T11:22:32.679Z,66.04
2018-02-12T11:23:32.946Z,67.43
2018-02-12T11:24:32.960Z,66.48
2018-02-12T11:25:32.723Z,66.77
2018-02-12T11:26:32.740Z,67.43
2018-02-12T11:27:32.754Z,67.52
2018-02-12T11:28:33.040Z,67.14
2018-02-12T11:29:32.792Z,66.58
2018-02-12T11:30:32.804Z,65.72
2018-02-12T11:31:33.073Z,66.2
2018-02-12T11:32:33.087Z,65.95
2018-02-12T11:33:33.191Z,65.37
2018-02-12T11:34:33.122Z,65.47
2018-02-12T11:35:33.157Z,64.94
2018-02-12T11:36:33.158Z,64.65
2018-02-12T11:37:32.929Z,63.35
2018-02-12T11:38:32.942Z,63.73
2018-02-12T11:39:32.964Z,63.26
2018-02-12T11:40:32.999Z,62.21
2018-02-12T11:41:33.253Z,61.48
2018-02-12T11:42:33.023Z,60.72
2018-02-12T11:43:33.041Z,60.72
2018-02-12T11:44:33.315Z,59.93
2018-02-12T11:45:33.082Z,61.36
2018-02-12T11:46:33.357Z,60.88
2018-02-12T11:47:33.125Z,60.79
2018-02-12T11:48:33.402Z,58.51
2018-02-12T11:49:33.416Z,57.84
2018-02-12T11:50:33.435Z,56.89
2018-02-12T11:51:33.204Z,55.66
2018-02-12T11:52:33.469Z,55.09
2018-02-12T11:53:33.487Z,54.49
2018-02-12T11:54:33.256Z,54.49
2018-02-12T11:55:33.275Z,55.22
2018-02-12T11:56:33.542Z,54.3
2018-02-12T11:57:33.307Z,53.54
2018-02-12T11:58:33.325Z,53.54
2018-02-12T11:59:33.344Z,52.4
2018-02-12T12:00:33.363Z,51.64
2018-02-12T12:01:33.640Z,51.93
2018-02-12T12:02:33.650Z,52.31
2018-02-12T12:03:33.421Z,53
2018-02-12T12:04:33.694Z,51.57
2018-02-12T12:05:33.711Z,50.91
2018-02-12T12:06:33.480Z,51.39
2018-02-12T12:07:33.749Z,51.86
2018-02-12T12:08:33.514Z,51.22
2018-02-12T12:09:33.532Z,50.74
2018-02-12T12:10:33.820Z,51.06
2018-02-12T12:11:33.591Z,49.25
2018-02-12T12:12:33.844Z,49.44
2018-02-12T12:13:33.615Z,50.1
2018-02-12T12:14:33.887Z,51.6
2018-02-12T12:15:33.904Z,51.15
2018-02-12T12:16:33.673Z,49.08
2018-02-12T12:17:33.953Z,48.13
2018-02-12T12:18:33.714Z,49.18
2018-02-12T12:19:34.043Z,47.49
2018-02-12T12:20:34.012Z,45.3
2018-02-12T12:21:34.029Z,45.59
2018-02-12T12:22:34.051Z,45.87
2018-02-12T12:23:34.073Z,45.95
2018-02-12T12:24:34.094Z,45.68
2018-02-12T12:25:33.861Z,45.21
2018-02-12T12:26:34.139Z,45.78
2018-02-12T12:27:34.157Z,45.01
2018-02-12T12:28:34.183Z,45.01
2018-02-12T12:29:34.203Z,45.3
2018-02-12T12:30:34.224Z,43.4
2018-02-12T12:31:34.247Z,43.68
2018-02-12T12:32:34.271Z,43.99
2018-02-12T12:33:34.049Z,43.23
2018-02-12T12:34:34.315Z,43.44
2018-02-12T12:35:34.337Z,40.87
2018-02-12T12:36:34.361Z,40.03
2018-02-12T12:37:34.131Z,40.3
2018-02-12T12:38:34.405Z,38.58
2018-02-12T12:39:34.178Z,39.7
2018-02-12T12:40:34.494Z,40.92
2018-02-12T12:41:34.227Z,40.92
2018-02-12T12:42:34.509Z,41.78
2018-02-12T12:43:34.259Z,41.49
2018-02-12T12:44:34.531Z,41.88
2018-02-12T12:45:34.572Z,41.59
2018-02-12T12:46:34.590Z,42.37
2018-02-12T12:47:34.359Z,40.87
2018-02-12T12:48:34.379Z,40.68
2018-02-12T12:49:34.425Z,39.65
2018-02-12T12:50:34.426Z,38.78
2018-02-12T12:51:34.704Z,39.15
2018-02-12T12:52:34.729Z,38.41
2018-02-12T12:53:34.752Z,37.65
2018-02-12T12:54:34.519Z,37.08
2018-02-12T12:55:34.551Z,37.36
2018-02-12T12:56:34.822Z,37.36
2018-02-12T12:57:34.600Z,36.32